createdAt,value
2017-06-12T00:00:05.846Z,19.52
2017-06-12T00:01:18.065Z,19.48
2017-06-12T00:02:30.275Z,19.52
2017-06-12T00:03:42.776Z,19.45
2017-06-12T00:04:55.300Z,19.52
2017-06-12T00:06:07.824Z,19.49
2017-06-12T00:07:20.067Z,19.56
2017-06-12T00:08:32.328Z,19.63
2017-06-12T00:09:44.523Z,19.6
2017-06-12T00:10:57.055Z,19.64
2017-06-12T00:12:09.297Z,19.63
2017-06-12T00:13:21.815Z,19.6
2017-06-12T00:14:34.035Z,19.59
2017-06-12T00:15:46.264Z,19.56
2017-06-12T00:16:58.834Z,19.56
2017-06-12T00:18:11.333Z,19.57
2017-06-12T00:19:23.826Z,19.55
2017-06-12T00:20:36.387Z,19.55
2017-06-12T00:21:48.915Z,19.44
2017-06-12T00:23:01.466Z,19.55
2017-06-12T00:24:13.711Z,19.47
2017-06-12T00:25:26.249Z,19.55
2017-06-12T00:26:38.784Z,19.47
2017-06-12T00:27:51.312Z,19.45
2017-06-12T00:29:03.558Z,19.47
2017-06-12T00:30:16.180Z,19.44
2017-06-12T00:31:28.703Z,19.49
2017-06-12T00:32:41.209Z,19.44
2017-06-12T00:33:53.454Z,19.42
2017-06-12T00:35:05.998Z,19.47
2017-06-12T00:36:18.519Z,19.38
2017-06-12T00:37:31.046Z,19.49
2017-06-12T00:38:43.587Z,19.42
2017-06-12T00:39:56.121Z,19.44
2017-06-12T00:41:08.467Z,19.34
2017-06-12T00:42:20.978Z,19.41
2017-06-12T00:43:33.495Z,19.41
2017-06-12T00:44:46.062Z,19.41
2017-06-12T00:45:58.279Z,19.42
2017-06-12T00:47:11.085Z,19.42
2017-06-12T00:48:23.620Z,19.41
2017-06-12T00:49:36.171Z,19.41
2017-06-12T00:50:48.695Z,19.34
2017-06-12T00:52:00.917Z,19.42
2017-06-12T00:53:13.155Z,19.41
2017-06-12T00:54:25.704Z,19.41
2017-06-12T00:55:38.218Z,19.29
2017-06-12T00:56:50.467Z,19.34
2017-06-12T00:58:02.993Z,19.27
2017-06-12T00:59:15.543Z,19.34
2017-06-12T01:00:27.762Z,19.29
2017-06-12T01:01:40.300Z,19.3
2017-06-12T01:02:52.859Z,19.29
2017-06-12T01:04:05.113Z,19.27
2017-06-12T01:05:17.375Z,19.27
2017-06-12T01:06:29.909Z,19.27
2017-06-12T01:07:42.434Z,19.26
2017-06-12T01:08:54.673Z,19.24
2017-06-12T01:10:07.202Z,19.3
2017-06-12T01:11:19.715Z,19.26
2017-06-12T01:12:32.261Z,19.23
2017-06-12T01:13:44.492Z,19.23
2017-06-12T01:14:57.027Z,19.24
2017-06-12T01:16:09.241Z,19.24
2017-06-12T01:17:21.778Z,19.19
2017-06-12T01:18:34.276Z,19.23
2017-06-12T01:19:47.122Z,19.2
2017-06-12T01:20:59.640Z,19.19
2017-06-12T01:22:12.161Z,19.23
2017-06-12T01:23:24.663Z,19.19
2017-06-12T01:24:36.898Z,19.23
2017-06-12T01:25:49.148Z,19.29
2017-06-12T01:27:01.690Z,19.23
2017-06-12T01:28:13.915Z,19.3
2017-06-12T01:29:26.420Z,19.27
2017-06-12T01:30:38.954Z,19.27
2017-06-12T01:31:51.474Z,19.24
2017-06-12T01:33:03.994Z,19.29
2017-06-12T01:34:16.525Z,19.27
2017-06-12T01:35:28.804Z,19.29
2017-06-12T01:36:41.337Z,19.29
2017-06-12T01:37:53.535Z,19.32
2017-06-12T01:39:06.107Z,19.3
2017-06-12T01:40:18.666Z,19.35
2017-06-12T01:41:31.199Z,19.3
2017-06-12T01:42:43.719Z,19.29
2017-06-12T01:43:55.933Z,19.37
2017-06-12T01:45:08.458Z,19.37
2017-06-12T01:46:21.279Z,19.38
2017-06-12T01:47:33.799Z,19.35
2017-06-12T01:48:46.325Z,19.37
2017-06-12T01:49:58.883Z,19.3
2017-06-12T01:51:11.136Z,19.35
2017-06-12T01:52:23.658Z,19.27
2017-06-12T01:53:36.210Z,19.34
2017-06-12T01:54:48.750Z,19.37
2017-06-12T01:56:01.273Z,19.29
2017-06-12T01:57:13.897Z,19.26
2017-06-12T01:58:26.418Z,19.29
2017-06-12T01:59:38.938Z,19.29
2017-06-12T02:00:51.508Z,19.27
2017-06-12T02:02:03.754Z,19.27
2017-06-12T02:03:16.300Z,19.24
2017-06-12T02:04:28.839Z,19.24
2017-06-12T02:05:41.363Z,19.27
2017-06-12T02:06:53.884Z,19.22
2017-06-12T02:08:06.701Z,19.22
2017-06-12T02:09:19.251Z,19.22
2017-06-12T02:10:31.850Z,19.17
2017-06-12T02:11:44.085Z,19.16
2017-06-12T02:12:56.618Z,19.2
2017-06-12T02:14:08.877Z,19.24
2017-06-12T02:15:21.109Z,19.17
2017-06-12T02:16:33.648Z,19.19
2017-06-12T02:17:46.172Z,19.15
2017-06-12T02:18:58.696Z,19.2
2017-06-12T02:20:11.245Z,19.11
2017-06-12T02:21:23.789Z,19.22
2017-06-12T02:22:36.327Z,19.15
2017-06-12T02:23:48.873Z,19.19
2017-06-12T02:25:01.390Z,19.19
2017-06-12T02:26:13.915Z,19.08
2017-06-12T02:27:26.443Z,19.08
2017-06-12T02:28:38.960Z,19.09
2017-06-12T02:29:51.473Z,19.11
2017-06-12T02:31:04.007Z,19.01
2017-06-12T02:32:16.527Z,19.08
2017-06-12T02:33:29.074Z,19.04
2017-06-12T02:34:41.645Z,19.09
2017-06-12T02:35:54.190Z,18.96
2017-06-12T02:37:06.433Z,18.98
2017-06-12T02:38:18.970Z,18.96
2017-06-12T02:39:31.519Z,19
2017-06-12T02:40:43.874Z,18.96
2017-06-12T02:41:56.412Z,18.96
2017-06-12T02:43:08.928Z,18.96
2017-06-12T02:44:21.428Z,18.96
2017-06-12T02:45:33.978Z,19
2017-06-12T02:46:46.520Z,18.92
2017-06-12T02:47:58.737Z,18.92
2017-06-12T02:49:10.986Z,18.89
2017-06-12T02:50:23.490Z,18.92
2017-06-12T02:51:36.037Z,18.83
2017-06-12T02:52:48.282Z,18.89
2017-06-12T02:54:00.824Z,18.88
2017-06-12T02:55:13.345Z,18.88
2017-06-12T02:56:25.862Z,18.83
2017-06-12T02:57:38.405Z,18.83
2017-06-12T02:58:50.939Z,18.83
2017-06-12T03:00:03.471Z,18.83
2017-06-12T03:01:15.720Z,18.85
2017-06-12T03:02:27.942Z,18.81
2017-06-12T03:03:40.471Z,18.76
2017-06-12T03:04:53.012Z,18.85
2017-06-12T03:06:05.261Z,18.85
2017-06-12T03:07:17.475Z,18.76
2017-06-12T03:08:29.992Z,18.74
2017-06-12T03:09:41.901Z,18.78
2017-06-12T03:10:54.121Z,18.66
2017-06-12T03:12:06.638Z,18.66
2017-06-12T03:13:19.287Z,18.64
2017-06-12T03:14:31.526Z,18.7
2017-06-12T03:15:44.072Z,18.61
2017-06-12T03:16:56.614Z,18.67
2017-06-12T03:18:09.153Z,18.66
2017-06-12T03:19:21.385Z,18.63
2017-06-12T03:20:33.935Z,18.63
2017-06-12T03:21:46.474Z,18.67
2017-06-12T03:22:58.696Z,18.64
2017-06-12T03:24:11.301Z,18.6
2017-06-12T03:25:23.236Z,18.7
2017-06-12T03:26:35.757Z,18.63
2017-06-12T03:27:48.306Z,18.68
2017-06-12T03:29:00.852Z,18.7
2017-06-12T03:30:12.757Z,18.68
2017-06-12T03:31:24.976Z,18.63
2017-06-12T03:32:37.547Z,18.68
2017-06-12T03:33:50.111Z,18.66
2017-06-12T03:35:02.378Z,18.67
2017-06-12T03:36:14.608Z,18.64
2017-06-12T03:37:27.120Z,18.63
2017-06-12T03:38:39.369Z,18.63
2017-06-12T03:39:51.874Z,18.68
2017-06-12T03:41:04.419Z,18.7
2017-06-12T03:42:16.353Z,18.61
2017-06-12T03:43:28.857Z,18.61
2017-06-12T03:44:41.103Z,18.64
2017-06-12T03:45:53.628Z,18.7
2017-06-12T03:47:05.873Z,18.7
2017-06-12T03:48:18.116Z,18.68
2017-06-12T03:49:30.311Z,18.66
2017-06-12T03:50:42.834Z,18.66
2017-06-12T03:51:55.075Z,18.73
2017-06-12T03:53:07.649Z,18.82
2017-06-12T03:54:20.165Z,18.79
2017-06-12T03:55:32.719Z,18.79
2017-06-12T03:56:45.337Z,18.74
2017-06-12T03:57:57.864Z,18.83
2017-06-12T03:59:10.383Z,18.74
2017-06-12T04:00:22.922Z,18.81
2017-06-12T04:01:35.430Z,18.78
2017-06-12T04:02:47.971Z,18.81
2017-06-12T04:04:00.504Z,18.83
2017-06-12T04:05:13.050Z,18.83
2017-06-12T04:06:25.595Z,18.94
2017-06-12T04:07:37.822Z,18.89
2017-06-12T04:08:50.346Z,18.91
2017-06-12T04:10:02.867Z,18.98
2017-06-12T04:11:15.387Z,18.97
2017-06-12T04:12:27.633Z,18.96
2017-06-12T04:13:40.149Z,18.94
2017-06-12T04:14:52.697Z,18.96
2017-06-12T04:16:05.217Z,18.96
2017-06-12T04:17:17.442Z,19
2017-06-12T04:18:29.963Z,18.97
2017-06-12T04:19:42.502Z,19.11
2017-06-12T04:20:55.039Z,19.09
2017-06-12T04:22:07.557Z,19.07
2017-06-12T04:23:19.788Z,19.12
2017-06-12T04:24:32.318Z,19.12
2017-06-12T04:25:44.838Z,19.12
2017-06-12T04:26:57.335Z,19.22
2017-06-12T04:28:09.852Z,19.2
2017-06-12T04:29:22.394Z,19.16
2017-06-12T04:30:34.948Z,19.17
2017-06-12T04:31:47.490Z,19.22
2017-06-12T04:33:00.014Z,19.2
2017-06-12T04:34:12.528Z,19.3
2017-06-12T04:35:24.777Z,19.3
2017-06-12T04:36:37.296Z,19.3
2017-06-12T04:37:49.844Z,19.32
2017-06-12T04:39:02.419Z,19.37
2017-06-12T04:40:15.039Z,19.39
2017-06-12T04:41:27.540Z,19.34
2017-06-12T04:42:40.078Z,19.35
2017-06-12T04:43:52.581Z,19.41
2017-06-12T04:45:04.845Z,19.39
2017-06-12T04:46:17.387Z,19.42
2017-06-12T04:47:29.618Z,19.44
2017-06-12T04:48:42.179Z,19.39
2017-06-12T04:49:54.707Z,19.55
2017-06-12T04:51:06.916Z,19.53
2017-06-12T04:52:19.441Z,19.64
2017-06-12T04:53:31.970Z,19.59
2017-06-12T04:54:44.536Z,19.71
2017-06-12T04:55:57.030Z,19.74
2017-06-12T04:57:09.557Z,19.77
2017-06-12T04:58:22.081Z,19.81
2017-06-12T04:59:34.320Z,19.67
2017-06-12T05:00:46.846Z,19.79
2017-06-12T05:01:59.387Z,19.75
2017-06-12T05:03:11.888Z,19.79
2017-06-12T05:04:24.450Z,19.9
2017-06-12T05:05:36.984Z,19.89
2017-06-12T05:06:49.528Z,19.94
2017-06-12T05:08:02.055Z,19.93
2017-06-12T05:09:14.609Z,19.94
2017-06-12T05:10:27.129Z,20
2017-06-12T05:11:39.375Z,19.97
2017-06-12T05:12:51.311Z,20.02
2017-06-12T05:14:03.543Z,20.04
2017-06-12T05:15:15.796Z,20.07
2017-06-12T05:16:28.346Z,20.1
2017-06-12T05:17:40.608Z,20.14
2017-06-12T05:18:52.897Z,20.11
2017-06-12T05:20:05.154Z,20.22
2017-06-12T05:21:17.405Z,20.11
2017-06-12T05:22:29.939Z,20.26
2017-06-12T05:23:42.248Z,20.19
2017-06-12T05:24:54.210Z,20.21
2017-06-12T05:26:06.437Z,20.3
2017-06-12T05:27:18.981Z,20.42
2017-06-12T05:28:31.218Z,20.4
2017-06-12T05:29:43.770Z,20.36
2017-06-12T05:30:56.011Z,20.37
2017-06-12T05:32:08.557Z,20.52
2017-06-12T05:33:21.078Z,20.53
2017-06-12T05:34:33.591Z,20.58
2017-06-12T05:35:46.147Z,20.68
2017-06-12T05:36:58.376Z,20.68
2017-06-12T05:38:10.597Z,20.77
2017-06-12T05:39:22.817Z,20.82
2017-06-12T05:40:35.385Z,20.82
2017-06-12T05:41:47.934Z,20.75
2017-06-12T05:43:00.480Z,20.89
2017-06-12T05:44:12.698Z,20.9
2017-06-12T05:45:25.226Z,20.95
2017-06-12T05:46:37.790Z,20.93
2017-06-12T05:47:50.029Z,20.93
2017-06-12T05:49:02.562Z,20.93
2017-06-12T05:50:15.123Z,20.92
2017-06-12T05:51:27.650Z,21.01
2017-06-12T05:52:39.873Z,21
2017-06-12T05:53:52.410Z,21.03
2017-06-12T05:55:04.337Z,20.98
2017-06-12T05:56:16.557Z,20.96
2017-06-12T05:57:29.070Z,21.01
2017-06-12T05:58:41.618Z,20.93
2017-06-12T05:59:53.864Z,20.96
2017-06-12T06:01:06.083Z,21
2017-06-12T06:02:18.638Z,21.01
2017-06-12T06:03:31.153Z,20.96
2017-06-12T06:04:43.396Z,21
2017-06-12T06:05:55.643Z,21.03
2017-06-12T06:07:08.163Z,20.98
2017-06-12T06:08:20.746Z,20.95
2017-06-12T06:09:33.279Z,21.07
2017-06-12T06:10:45.793Z,21.07
2017-06-12T06:11:58.082Z,21.04
2017-06-12T06:13:10.617Z,21.03
2017-06-12T06:14:23.140Z,21.15
2017-06-12T06:15:35.717Z,21.22
2017-06-12T06:16:48.241Z,21.23
2017-06-12T06:18:00.840Z,21.23
2017-06-12T06:19:13.061Z,21.26
2017-06-12T06:20:25.620Z,21.37
2017-06-12T06:21:37.839Z,21.41
2017-06-12T06:22:50.353Z,21.51
2017-06-12T06:24:02.567Z,21.53
2017-06-12T06:25:15.108Z,21.54
2017-06-12T06:26:27.653Z,21.66
2017-06-12T06:27:40.173Z,21.77
2017-06-12T06:28:52.722Z,21.88
2017-06-12T06:30:05.262Z,21.94
2017-06-12T06:31:17.489Z,22.1
2017-06-12T06:32:29.730Z,22.07
2017-06-12T06:33:42.255Z,22.15
2017-06-12T06:34:54.482Z,22.06
2017-06-12T06:36:06.722Z,22.07
2017-06-12T06:37:19.248Z,22.07
2017-06-12T06:38:31.509Z,22.12
2017-06-12T06:39:44.060Z,22.16
2017-06-12T06:40:56.626Z,22.06
2017-06-12T06:42:09.144Z,22.21
2017-06-12T06:43:21.692Z,22.26
2017-06-12T06:44:34.218Z,22.26
2017-06-12T06:45:46.486Z,22.4
2017-06-12T06:46:58.439Z,22.47
2017-06-12T06:48:10.689Z,22.59
2017-06-12T06:49:22.952Z,22.71
2017-06-12T06:50:35.491Z,22.81
2017-06-12T06:51:48.022Z,22.93
2017-06-12T06:53:00.532Z,22.95
2017-06-12T06:54:13.061Z,22.95
2017-06-12T06:55:25.632Z,22.95
2017-06-12T06:56:38.145Z,23.14
2017-06-12T06:57:50.666Z,23.2
2017-06-12T06:59:02.615Z,23.32
2017-06-12T07:00:15.161Z,23.37
2017-06-12T07:01:27.691Z,23.44
2017-06-12T07:02:40.236Z,23.51
2017-06-12T07:03:52.778Z,23.55
2017-06-12T07:05:05.332Z,23.56
2017-06-12T07:06:17.871Z,23.58
2017-06-12T07:07:30.394Z,23.58
2017-06-12T07:08:42.940Z,23.58
2017-06-12T07:09:55.482Z,23.81
2017-06-12T07:11:07.704Z,23.89
2017-06-12T07:12:20.275Z,24.07
2017-06-12T07:13:32.789Z,24.19
2017-06-12T07:14:45.341Z,24.36
2017-06-12T07:15:57.607Z,24.62
2017-06-12T07:17:10.143Z,24.58
2017-06-12T07:18:22.404Z,24.69
2017-06-12T07:19:34.629Z,24.84
2017-06-12T07:20:46.867Z,25
2017-06-12T07:21:59.091Z,25.24
2017-06-12T07:23:11.613Z,25.4
2017-06-12T07:24:24.153Z,25.61
2017-06-12T07:25:36.701Z,25.74
2017-06-12T07:26:49.255Z,25.67
2017-06-12T07:28:01.500Z,25.55
2017-06-12T07:29:13.763Z,25.61
2017-06-12T07:30:26.316Z,25.55
2017-06-12T07:31:38.887Z,25.63
2017-06-12T07:32:51.130Z,25.71
2017-06-12T07:34:03.679Z,25.78
2017-06-12T07:35:15.642Z,25.85
2017-06-12T07:36:28.197Z,25.93
2017-06-12T07:37:40.749Z,26.16
2017-06-12T07:38:53.288Z,26.36
2017-06-12T07:40:05.526Z,26.49
2017-06-12T07:41:18.056Z,26.68
2017-06-12T07:42:30.614Z,26.73
2017-06-12T07:43:43.161Z,26.88
2017-06-12T07:44:55.414Z,27
2017-06-12T07:46:07.956Z,27.05
2017-06-12T07:47:20.539Z,27.05
2017-06-12T07:48:33.069Z,27
2017-06-12T07:49:45.644Z,27.1
2017-06-12T07:50:58.160Z,27.19
2017-06-12T07:52:10.085Z,27.25
2017-06-12T07:53:22.653Z,27.43
2017-06-12T07:54:35.209Z,27.25
2017-06-12T07:55:47.749Z,27.4
2017-06-12T07:56:59.677Z,27.25
2017-06-12T07:58:11.622Z,27.38
2017-06-12T07:59:24.160Z,27.37
2017-06-12T08:00:36.403Z,27.4
2017-06-12T08:01:48.975Z,27.38
2017-06-12T08:03:01.528Z,27.44
2017-06-12T08:04:14.053Z,27.48
2017-06-12T08:05:26.594Z,27.67
2017-06-12T08:06:38.532Z,27.73
2017-06-12T08:07:51.083Z,27.78
2017-06-12T08:09:03.625Z,27.85
2017-06-12T08:10:15.884Z,27.95
2017-06-12T08:11:28.466Z,28.12
2017-06-12T08:12:41.021Z,28.28
2017-06-12T08:13:53.247Z,28.38
2017-06-12T08:15:05.492Z,28.4
2017-06-12T08:16:18.059Z,28.55
2017-06-12T08:17:30.625Z,28.64
2017-06-12T08:18:43.171Z,28.72
2017-06-12T08:19:55.698Z,28.82
2017-06-12T08:21:08.236Z,28.78
2017-06-12T08:22:20.785Z,28.8
2017-06-12T08:23:33.352Z,28.97
2017-06-12T08:24:45.902Z,28.97
2017-06-12T08:25:58.496Z,28.89
2017-06-12T08:27:10.746Z,28.83
2017-06-12T08:28:22.710Z,28.86
2017-06-12T08:29:34.943Z,28.9
2017-06-12T08:30:47.188Z,28.9
2017-06-12T08:31:59.733Z,28.89
2017-06-12T08:33:11.998Z,28.74
2017-06-12T08:34:24.546Z,28.57
2017-06-12T08:35:37.110Z,28.34
2017-06-12T08:36:49.659Z,28.16
2017-06-12T08:38:02.187Z,28.06
2017-06-12T08:39:14.530Z,28.1
2017-06-12T08:40:26.796Z,28.25
2017-06-12T08:41:39.367Z,28.2
2017-06-12T08:42:51.614Z,28.2
2017-06-12T08:44:04.159Z,28.12
2017-06-12T08:45:16.410Z,28.18
2017-06-12T08:46:28.927Z,28.23
2017-06-12T08:47:41.194Z,28.28
2017-06-12T08:48:53.126Z,28.38
2017-06-12T08:50:05.690Z,28.6
2017-06-12T08:51:17.935Z,28.71
2017-06-12T08:52:30.463Z,28.72
2017-06-12T08:53:43.035Z,28.82
2017-06-12T08:54:54.994Z,28.93
2017-06-12T08:56:07.241Z,29.09
2017-06-12T08:57:19.494Z,29.05
2017-06-12T08:58:32.018Z,29.07
2017-06-12T08:59:44.264Z,29.09
2017-06-12T09:00:56.531Z,29.09
2017-06-12T09:02:08.799Z,29.09
2017-06-12T09:03:21.341Z,29.25
2017-06-12T09:04:33.865Z,29.32
2017-06-12T09:05:46.436Z,29.32
2017-06-12T09:06:58.686Z,29.3
2017-06-12T09:08:11.224Z,29.25
2017-06-12T09:09:23.775Z,29.28
2017-06-12T09:10:36.319Z,29.35
2017-06-12T09:11:48.868Z,29.43
2017-06-12T09:13:01.411Z,29.4
2017-06-12T09:14:13.980Z,29.34
2017-06-12T09:15:26.549Z,29.2
2017-06-12T09:16:38.829Z,29.12
2017-06-12T09:17:51.395Z,29.18
2017-06-12T09:19:03.949Z,29.34
2017-06-12T09:20:16.537Z,29.37
2017-06-12T09:21:28.787Z,29.35
2017-06-12T09:22:41.362Z,29.52
2017-06-12T09:23:53.578Z,29.64
2017-06-12T09:25:05.243Z,29.74
2017-06-12T09:26:17.216Z,30.03
2017-06-12T09:27:29.442Z,30.32
2017-06-12T09:28:41.688Z,30.39
2017-06-12T09:29:54.205Z,30.58
2017-06-12T09:31:06.775Z,30.8
2017-06-12T09:32:19.310Z,30.86
2017-06-12T09:33:31.900Z,31.07
2017-06-12T09:34:44.172Z,31.11
2017-06-12T09:35:56.760Z,31.23
2017-06-12T09:37:09.306Z,31.37
2017-06-12T09:38:21.850Z,31.42
2017-06-12T09:39:34.117Z,31.52
2017-06-12T09:40:46.690Z,31.45
2017-06-12T09:41:58.967Z,31.57
2017-06-12T09:43:11.490Z,31.39
2017-06-12T09:44:24.027Z,31.52
2017-06-12T09:45:36.585Z,31.59
2017-06-12T09:46:48.873Z,31.5
2017-06-12T09:48:01.443Z,31.39
2017-06-12T09:49:13.423Z,31.33
2017-06-12T09:50:26.006Z,31.1
2017-06-12T09:51:38.288Z,30.98
2017-06-12T09:52:50.577Z,31.07
2017-06-12T09:54:03.120Z,31.07
2017-06-12T09:55:15.075Z,31.08
2017-06-12T09:56:26.715Z,31.33
2017-06-12T09:57:38.982Z,31.54
2017-06-12T09:58:50.917Z,31.62
2017-06-12T10:00:03.459Z,31.54
2017-06-12T10:01:15.731Z,31.67
2017-06-12T10:02:27.998Z,31.78
2017-06-12T10:03:40.573Z,32.01
2017-06-12T10:04:53.144Z,32.22
2017-06-12T10:06:05.689Z,32.31
2017-06-12T10:07:17.378Z,32.41
2017-06-12T10:08:29.931Z,32.61
2017-06-12T10:09:42.195Z,32.71
2017-06-12T10:10:54.473Z,32.78
2017-06-12T10:12:06.709Z,33.01
2017-06-12T10:13:19.262Z,32.88
2017-06-12T10:14:31.528Z,32.83
2017-06-12T10:15:44.074Z,32.94
2017-06-12T10:16:56.616Z,33.05
2017-06-12T10:18:09.171Z,33.15
2017-06-12T10:19:21.720Z,33.17
2017-06-12T10:20:34.282Z,33.26
2017-06-12T10:21:46.861Z,33.32
2017-06-12T10:22:59.128Z,33.42
2017-06-12T10:24:11.371Z,33.42
2017-06-12T10:25:23.639Z,33.51
2017-06-12T10:26:35.909Z,33.66
2017-06-12T10:27:47.858Z,33.63
2017-06-12T10:29:00.425Z,33.69
2017-06-12T10:30:12.108Z,33.7
2017-06-12T10:31:24.703Z,33.65
2017-06-12T10:32:37.245Z,33.44
2017-06-12T10:33:49.212Z,33.09
2017-06-12T10:35:01.183Z,32.76
2017-06-12T10:36:13.155Z,32.31
2017-06-12T10:37:25.708Z,32
2017-06-12T10:38:37.918Z,31.6
2017-06-12T10:39:50.464Z,31.39
2017-06-12T10:41:02.994Z,31.26
2017-06-12T10:42:15.233Z,31.33
2017-06-12T10:43:27.502Z,31.14
2017-06-12T10:44:39.755Z,31.05
2017-06-12T10:45:52.319Z,31.07
2017-06-12T10:47:04.573Z,30.92
2017-06-12T10:48:17.118Z,30.74
2017-06-12T10:49:29.693Z,30.48
2017-06-12T10:50:41.942Z,30.17
2017-06-12T10:51:54.224Z,29.77
2017-06-12T10:53:06.756Z,29.49
2017-06-12T10:54:18.698Z,29.09
2017-06-12T10:55:31.247Z,28.92
2017-06-12T10:56:43.510Z,28.74
2017-06-12T10:57:56.086Z,28.56
2017-06-12T10:59:08.334Z,28.33
2017-06-12T11:00:20.260Z,28.12
2017-06-12T11:01:32.519Z,28.06
2017-06-12T11:02:44.448Z,28.04
2017-06-12T11:03:56.715Z,27.9
2017-06-12T11:05:08.636Z,27.79
2017-06-12T11:06:20.561Z,27.79
2017-06-12T11:07:33.107Z,27.79
2017-06-12T11:08:45.640Z,27.76
2017-06-12T11:09:58.176Z,27.75
2017-06-12T11:11:10.711Z,27.6
2017-06-12T11:12:23.256Z,27.61
2017-06-12T11:13:35.810Z,27.52
2017-06-12T11:14:48.327Z,27.47
2017-06-12T11:15:59.967Z,27.37
2017-06-12T11:17:12.195Z,27.48
2017-06-12T11:18:24.433Z,27.71
2017-06-12T11:19:36.967Z,27.72
2017-06-12T11:20:49.536Z,27.73
2017-06-12T11:22:02.096Z,27.88
2017-06-12T11:23:14.049Z,27.93
2017-06-12T11:24:26.298Z,27.91
2017-06-12T11:25:38.867Z,27.93
2017-06-12T11:26:51.388Z,27.85
2017-06-12T11:28:03.900Z,27.81
2017-06-12T11:29:16.429Z,27.64
2017-06-12T11:30:28.380Z,27.75
2017-06-12T11:31:40.601Z,27.6
2017-06-12T11:32:53.145Z,27.43
2017-06-12T11:34:04.780Z,27.28
2017-06-12T11:35:17.019Z,27.16
2017-06-12T11:36:29.575Z,27.23
2017-06-12T11:37:41.830Z,27.45
2017-06-12T11:38:54.400Z,27.68
2017-06-12T11:40:06.967Z,27.85
2017-06-12T11:41:19.506Z,27.95
2017-06-12T11:42:31.777Z,28.03
2017-06-12T11:43:44.046Z,28.33
2017-06-12T11:44:56.001Z,28.68
2017-06-12T11:46:08.246Z,28.68
2017-06-12T11:47:20.173Z,28.86
2017-06-12T11:48:32.442Z,29
2017-06-12T11:49:44.993Z,29.05
2017-06-12T11:50:56.956Z,28.92
2017-06-12T11:52:08.919Z,28.92
2017-06-12T11:53:21.452Z,28.94
2017-06-12T11:54:34.036Z,28.93
2017-06-12T11:55:46.594Z,28.77
2017-06-12T11:56:58.882Z,28.62
2017-06-12T11:58:11.427Z,28.62
2017-06-12T11:59:23.395Z,28.56
2017-06-12T12:00:35.657Z,28.4
2017-06-12T12:01:48.212Z,28.2
2017-06-12T12:03:00.769Z,28.06
2017-06-12T12:04:13.311Z,28.03
2017-06-12T12:05:25.540Z,28.2
2017-06-12T12:06:38.102Z,28.38
2017-06-12T12:07:50.676Z,28.59
2017-06-12T12:09:02.894Z,28.83
2017-06-12T12:10:15.133Z,28.87
2017-06-12T12:11:27.379Z,29.2
2017-06-12T12:12:39.632Z,29.57
2017-06-12T12:13:51.860Z,29.94
2017-06-12T12:15:04.094Z,29.96
2017-06-12T12:16:16.663Z,30.17
2017-06-12T12:17:29.211Z,30.32
2017-06-12T12:18:41.155Z,30.35
2017-06-12T12:19:53.713Z,30.39
2017-06-12T12:21:06.249Z,30.26
2017-06-12T12:22:18.202Z,30.21
2017-06-12T12:23:30.750Z,29.94
2017-06-12T12:24:43.015Z,29.89
2017-06-12T12:25:54.983Z,29.62
2017-06-12T12:27:07.214Z,29.4
2017-06-12T12:28:19.775Z,29.22
2017-06-12T12:29:32.325Z,28.93
2017-06-12T12:30:44.563Z,28.75
2017-06-12T12:31:56.810Z,28.78
2017-06-12T12:33:09.359Z,28.89
2017-06-12T12:34:21.912Z,29.06
2017-06-12T12:35:34.456Z,29.25
2017-06-12T12:36:47.018Z,29.47
2017-06-12T12:37:59.350Z,29.76
2017-06-12T12:39:11.599Z,29.95
2017-06-12T12:40:23.838Z,30.18
2017-06-12T12:41:36.102Z,30.43
2017-06-12T12:42:48.333Z,30.67
2017-06-12T12:44:00.905Z,30.83
2017-06-12T12:45:13.147Z,31.13
2017-06-12T12:46:25.709Z,31.08
2017-06-12T12:47:37.689Z,31.2
2017-06-12T12:48:49.955Z,31.28
2017-06-12T12:50:02.510Z,31.37
2017-06-12T12:51:15.072Z,31.55
2017-06-12T12:52:27.040Z,31.74
2017-06-12T12:53:39.585Z,32.01
2017-06-12T12:54:51.813Z,32.16
2017-06-12T12:56:03.760Z,32.26
2017-06-12T12:57:15.998Z,32.34
2017-06-12T12:58:28.281Z,32.46
2017-06-12T12:59:40.841Z,32.53
2017-06-12T13:00:53.394Z,32.66
2017-06-12T13:02:05.340Z,32.35
2017-06-12T13:03:17.882Z,31.85
2017-06-12T13:04:30.408Z,31.44
2017-06-12T13:05:42.945Z,31.2
2017-06-12T13:06:55.493Z,30.89
2017-06-12T13:08:07.744Z,30.52
2017-06-12T13:09:19.694Z,30.31
2017-06-12T13:10:32.239Z,29.92
2017-06-12T13:11:44.807Z,29.62
2017-06-12T13:12:56.744Z,29.35
2017-06-12T13:14:08.679Z,29.02
2017-06-12T13:15:21.237Z,28.67
2017-06-12T13:16:33.187Z,28.43
2017-06-12T13:17:45.704Z,28.22
2017-06-12T13:18:58.236Z,28.03
2017-06-12T13:20:10.499Z,27.75
2017-06-12T13:21:23.025Z,27.5
2017-06-12T13:22:35.263Z,27.41
2017-06-12T13:23:47.508Z,27.23
2017-06-12T13:25:00.067Z,27.16
2017-06-12T13:26:12.604Z,27.19
2017-06-12T13:27:24.859Z,27.26
2017-06-12T13:28:37.395Z,27.41
2017-06-12T13:29:49.624Z,27.44
2017-06-12T13:31:01.871Z,27.52
2017-06-12T13:32:14.429Z,27.64
2017-06-12T13:33:26.362Z,27.78
2017-06-12T13:34:38.622Z,27.78
2017-06-12T13:35:51.180Z,27.85
2017-06-12T13:37:03.746Z,27.94
2017-06-12T13:38:15.992Z,27.88
2017-06-12T13:39:28.517Z,27.85
2017-06-12T13:40:40.500Z,28.04
2017-06-12T13:41:52.723Z,28.19
2017-06-12T13:43:04.976Z,28.22
2017-06-12T13:44:17.551Z,28.34
2017-06-12T13:45:30.118Z,28.5
2017-06-12T13:46:42.642Z,28.43
2017-06-12T13:47:55.214Z,28.65
2017-06-12T13:49:07.472Z,28.83
2017-06-12T13:50:20.030Z,29.02
2017-06-12T13:51:32.264Z,29.21
2017-06-12T13:52:44.816Z,29.44
2017-06-12T13:53:57.055Z,29.32
2017-06-12T13:55:08.987Z,29.49
2017-06-12T13:56:21.251Z,29.44
2017-06-12T13:57:33.794Z,29.4
2017-06-12T13:58:46.365Z,29.34
2017-06-12T13:59:58.311Z,29.21
2017-06-12T14:01:10.585Z,29
2017-06-12T14:02:22.834Z,28.83
2017-06-12T14:03:35.399Z,28.72
2017-06-12T14:04:47.725Z,28.5
2017-06-12T14:05:59.977Z,28.3
2017-06-12T14:07:12.265Z,28.01
2017-06-12T14:08:24.519Z,27.68
2017-06-12T14:09:37.036Z,27.55
2017-06-12T14:10:48.978Z,27.47
2017-06-12T14:12:01.228Z,27.4
2017-06-12T14:13:13.459Z,27.26
2017-06-12T14:14:26.024Z,27.22
2017-06-12T14:15:38.550Z,27.07
2017-06-12T14:16:51.079Z,26.98
2017-06-12T14:18:03.332Z,26.83
2017-06-12T14:19:15.270Z,26.79
2017-06-12T14:20:27.845Z,26.59
2017-06-12T14:21:40.388Z,26.48
2017-06-12T14:22:52.921Z,26.26
2017-06-12T14:24:05.468Z,26.08
2017-06-12T14:25:17.429Z,25.98
2017-06-12T14:26:29.954Z,26.04
2017-06-12T14:27:42.475Z,26.24
2017-06-12T14:28:54.998Z,26.3
2017-06-12T14:30:07.266Z,26.29
2017-06-12T14:31:19.805Z,26.26
2017-06-12T14:32:32.051Z,26.46
2017-06-12T14:33:44.309Z,26.19
2017-06-12T14:34:56.575Z,26.19
2017-06-12T14:36:09.121Z,26.11
2017-06-12T14:37:21.987Z,25.96
2017-06-12T14:38:34.205Z,25.86
2017-06-12T14:39:46.413Z,25.8
2017-06-12T14:40:58.626Z,25.71
2017-06-12T14:42:11.150Z,25.67
2017-06-12T14:43:23.089Z,25.74
2017-06-12T14:44:35.610Z,25.85
2017-06-12T14:45:47.834Z,25.85
2017-06-12T14:46:59.781Z,25.89
2017-06-12T14:48:12.023Z,25.77
2017-06-12T14:49:24.543Z,25.8
2017-06-12T14:50:37.094Z,25.78
2017-06-12T14:51:49.339Z,25.63
2017-06-12T14:53:01.606Z,25.61
2017-06-12T14:54:14.127Z,25.44
2017-06-12T14:55:26.660Z,25.41
2017-06-12T14:56:38.898Z,25.34
2017-06-12T14:57:51.451Z,25.19
2017-06-12T14:59:03.686Z,25.12
2017-06-12T15:00:15.908Z,24.97
2017-06-12T15:01:28.161Z,24.81
2017-06-12T15:02:40.701Z,24.71
2017-06-12T15:03:52.631Z,24.56
2017-06-12T15:05:04.874Z,24.53
2017-06-12T15:06:16.840Z,24.38
2017-06-12T15:07:29.346Z,24.47
2017-06-12T15:08:41.866Z,24.41
2017-06-12T15:09:54.374Z,24.36
2017-06-12T15:11:05.998Z,24.38
2017-06-12T15:12:18.245Z,24.25
2017-06-12T15:13:30.470Z,24.25
2017-06-12T15:14:43.019Z,24.14
2017-06-12T15:15:55.578Z,24.1
2017-06-12T15:17:07.803Z,23.95
2017-06-12T15:18:20.053Z,23.89
2017-06-12T15:19:32.595Z,23.84
2017-06-12T15:20:45.145Z,23.81
2017-06-12T15:21:57.669Z,23.7
2017-06-12T15:23:10.216Z,23.63
2017-06-12T15:24:22.753Z,23.67
2017-06-12T15:25:35.299Z,23.59
2017-06-12T15:26:47.549Z,23.52
2017-06-12T15:28:00.095Z,23.44
2017-06-12T15:29:12.342Z,23.32
2017-06-12T15:30:24.886Z,23.39
2017-06-12T15:31:37.455Z,23.21
2017-06-12T15:32:50.010Z,23.14
2017-06-12T15:34:02.225Z,23.2
2017-06-12T15:35:14.727Z,23.11
2017-06-12T15:36:26.923Z,23.08